Terminal Aerodrome Forecast
Issued by NWS

Home | Current Version | Previous Version | Text Only | Print | Product List | Glossary On
Versions: 1 2 3 4 5 6 7 8 9 10 11 12 13 14
744
FTUS43 KMQT 282330
TAFIWD
TAF
KIWD 282330Z 2900/2924 26006KT P6SM VCSH BKN045
     FM290500 25006KT P6SM VCSH BKN030
     FM291000 25008KT P6SM VCSH OVC020
     FM291400 25012KT P6SM VCSH OVC010
     FM291800 25013G20KT P6SM -SHRA OVC015=

USA.gov is the U.S. government's official web portal to all federal, state and local government web resources and services.